sensor_id;sensor_type;location;lat;lon;timestamp;pressure;altitude;pressure_sealevel;temperature;humidity
84511;BME280;74730;43.858;18.424;2024-02-14T00:00:46;95817.44;;;4.79;74.25
84511;BME280;74730;43.858;18.424;2024-02-14T00:03:12;95820.81;;;4.79;74.95
84511;BME280;74730;43.858;18.424;2024-02-14T00:05:37;95823.88;;;4.83;74.99
84511;BME280;74730;43.858;18.424;2024-02-14T00:08:03;95827.09;;;4.85;75.61
84511;BME280;74730;43.858;18.424;2024-02-14T00:10:28;95825.03;;;4.88;75.07
84511;BME280;74730;43.858;18.424;2024-02-14T00:12:54;95820.56;;;4.90;74.79
84511;BME280;74730;43.858;18.424;2024-02-14T00:15:20;95823.00;;;4.92;73.47
84511;BME280;74730;43.858;18.424;2024-02-14T00:17:45;95825.53;;;4.92;73.05
84511;BME280;74730;43.858;18.424;2024-02-14T00:20:11;95830.38;;;4.95;73.41
84511;BME280;74730;43.858;18.424;2024-02-14T00:22:38;95836.16;;;4.97;73.38
84511;BME280;74730;43.858;18.424;2024-02-14T00:25:04;95827.91;;;5.03;73.11
84511;BME280;74730;43.858;18.424;2024-02-14T00:27:30;95830.28;;;5.05;72.33
84511;BME280;74730;43.858;18.424;2024-02-14T00:29:55;95843.91;;;5.05;72.15
84511;BME280;74730;43.858;18.424;2024-02-14T00:32:21;95837.97;;;5.05;72.09
84511;BME280;74730;43.858;18.424;2024-02-14T00:34:47;95844.06;;;5.04;72.08
84511;BME280;74730;43.858;18.424;2024-02-14T00:37:13;95846.31;;;5.07;70.49
84511;BME280;74730;43.858;18.424;2024-02-14T00:39:39;95838.19;;;5.11;70.68
84511;BME280;74730;43.858;18.424;2024-02-14T00:42:04;95844.25;;;5.10;70.51
84511;BME280;74730;43.858;18.424;2024-02-14T00:44:30;95844.13;;;5.12;70.98
84511;BME280;74730;43.858;18.424;2024-02-14T00:46:57;95844.25;;;5.10;70.72
84511;BME280;74730;43.858;18.424;2024-02-14T00:49:25;95850.06;;;5.12;70.19
84511;BME280;74730;43.858;18.424;2024-02-14T00:51:51;95844.94;;;5.12;70.38
84511;BME280;74730;43.858;18.424;2024-02-14T00:54:16;95850.31;;;5.09;70.75
84511;BME280;74730;43.858;18.424;2024-02-14T00:56:42;95851.44;;;5.07;70.38
84511;BME280;74730;43.858;18.424;2024-02-14T00:59:07;95846.63;;;5.04;70.77
84511;BME280;74730;43.858;18.424;2024-02-14T01:01:33;95852.25;;;5.07;70.83
84511;BME280;74730;43.858;18.424;2024-02-14T01:03:58;95857.38;;;5.07;70.32
84511;BME280;74730;43.858;18.424;2024-02-14T01:06:24;95862.31;;;5.09;70.07
84511;BME280;74730;43.858;18.424;2024-02-14T01:08:50;95860.72;;;5.08;70.64
84511;BME280;74730;43.858;18.424;2024-02-14T01:11:15;95859.13;;;5.07;70.76
84511;BME280;74730;43.858;18.424;2024-02-14T01:13:41;95853.06;;;5.08;70.69
84511;BME280;74730;43.858;18.424;2024-02-14T01:16:06;95854.81;;;5.07;70.09
84511;BME280;74730;43.858;18.424;2024-02-14T01:18:33;95861.53;;;5.08;69.52
84511;BME280;74730;43.858;18.424;2024-02-14T01:20:58;95864.53;;;5.04;69.84
84511;BME280;74730;43.858;18.424;2024-02-14T01:23:26;95862.56;;;4.98;69.56
84511;BME280;74730;43.858;18.424;2024-02-14T01:25:51;95868.50;;;4.98;70.00
84511;BME280;74730;43.858;18.424;2024-02-14T01:28:20;95860.94;;;4.97;69.15
84511;BME280;74730;43.858;18.424;2024-02-14T01:30:45;95862.06;;;4.94;69.58
84511;BME280;74730;43.858;18.424;2024-02-14T01:33:11;95864.63;;;4.94;69.01
84511;BME280;74730;43.858;18.424;2024-02-14T01:35:36;95862.06;;;4.94;68.68
84511;BME280;74730;43.858;18.424;2024-02-14T01:38:02;95859.56;;;5.02;69.33
84511;BME280;74730;43.858;18.424;2024-02-14T01:40:28;95868.63;;;4.97;69.90
84511;BME280;74730;43.858;18.424;2024-02-14T01:42:55;95858.88;;;5.00;69.98
84511;BME280;74730;43.858;18.424;2024-02-14T01:45:21;95859.88;;;4.99;70.41
84511;BME280;74730;43.858;18.424;2024-02-14T01:47:48;95857.75;;;4.95;69.32
84511;BME280;74730;43.858;18.424;2024-02-14T01:50:15;95854.50;;;4.93;69.79
84511;BME280;74730;43.858;18.424;2024-02-14T01:52:41;95852.09;;;4.91;69.08
84511;BME280;74730;43.858;18.424;2024-02-14T01:55:07;95849.25;;;4.94;69.76
84511;BME280;74730;43.858;18.424;2024-02-14T01:57:33;95852.19;;;4.99;69.75
84511;BME280;74730;43.858;18.424;2024-02-14T02:00:02;95857.63;;;5.04;69.64
84511;BME280;74730;43.858;18.424;2024-02-14T02:02:37;95852.09;;;5.09;69.51
84511;BME280;74730;43.858;18.424;2024-02-14T02:05:08;95855.44;;;5.09;70.13
84511;BME280;74730;43.858;18.424;2024-02-14T02:07:33;95858.38;;;5.14;70.32
84511;BME280;74730;43.858;18.424;2024-02-14T02:09:59;95863.13;;;5.09;69.80
84511;BME280;74730;43.858;18.424;2024-02-14T02:12:24;95856.94;;;4.94;70.23
84511;BME280;74730;43.858;18.424;2024-02-14T02:14:53;95857.81;;;4.85;71.18
84511;BME280;74730;43.858;18.424;2024-02-14T02:17:19;95862.56;;;4.80;71.38
84511;BME280;74730;43.858;18.424;2024-02-14T02:19:44;95868.25;;;4.74;71.99
84511;BME280;74730;43.858;18.424;2024-02-14T02:22:10;95861.38;;;4.74;71.41
84511;BME280;74730;43.858;18.424;2024-02-14T02:24:35;95874.16;;;4.74;70.98
84511;BME280;74730;43.858;18.424;2024-02-14T02:27:02;95864.38;;;4.70;70.63
84511;BME280;74730;43.858;18.424;2024-02-14T02:29:27;95869.78;;;4.67;71.11
84511;BME280;74730;43.858;18.424;2024-02-14T02:31:53;95874.22;;;4.65;70.69
84511;BME280;74730;43.858;18.424;2024-02-14T02:34:18;95872.78;;;4.62;68.43
84511;BME280;74730;43.858;18.424;2024-02-14T02:36:44;95875.84;;;4.66;69.15
84511;BME280;74730;43.858;18.424;2024-02-14T02:39:14;95877.09;;;4.62;67.48
84511;BME280;74730;43.858;18.424;2024-02-14T02:41:39;95874.66;;;4.60;67.90
84511;BME280;74730;43.858;18.424;2024-02-14T02:44:05;95872.09;;;4.60;67.48
84511;BME280;74730;43.858;18.424;2024-02-14T02:46:32;95876.22;;;4.71;68.45
84511;BME280;74730;43.858;18.424;2024-02-14T02:48:57;95887.03;;;4.65;69.09
84511;BME280;74730;43.858;18.424;2024-02-14T02:51:24;95888.25;;;4.61;69.65
84511;BME280;74730;43.858;18.424;2024-02-14T02:53:49;95887.59;;;4.59;70.94
84511;BME280;74730;43.858;18.424;2024-02-14T02:56:15;95888.34;;;4.69;70.09
84511;BME280;74730;43.858;18.424;2024-02-14T02:58:40;95896.81;;;4.69;69.55
84511;BME280;74730;43.858;18.424;2024-02-14T03:01:10;95894.19;;;4.61;69.42
84511;BME280;74730;43.858;18.424;2024-02-14T03:03:37;95899.72;;;4.57;69.77
84511;BME280;74730;43.858;18.424;2024-02-14T03:06:04;95898.41;;;4.53;70.54
84511;BME280;74730;43.858;18.424;2024-02-14T03:08:30;95903.94;;;4.48;71.26
84511;BME280;74730;43.858;18.424;2024-02-14T03:10:56;95909.19;;;4.46;70.66
84511;BME280;74730;43.858;18.424;2024-02-14T03:13:25;95908.69;;;4.43;69.88
84511;BME280;74730;43.858;18.424;2024-02-14T03:15:52;95904.38;;;4.43;69.86
84511;BME280;74730;43.858;18.424;2024-02-14T03:18:18;95919.97;;;4.40;70.19
84511;BME280;74730;43.858;18.424;2024-02-14T03:20:44;95919.03;;;4.41;71.47
84511;BME280;74730;43.858;18.424;2024-02-14T03:23:09;95917.72;;;4.37;73.51
84511;BME280;74730;43.858;18.424;2024-02-14T03:25:35;95922.88;;;4.28;73.23
84511;BME280;74730;43.858;18.424;2024-02-14T03:28:02;95927.19;;;4.27;73.78
84511;BME280;74730;43.858;18.424;2024-02-14T03:30:36;95928.41;;;4.23;73.67
84511;BME280;74730;43.858;18.424;2024-02-14T03:33:03;95927.88;;;4.20;73.59
84511;BME280;74730;43.858;18.424;2024-02-14T03:35:28;95931.91;;;4.22;74.00
84511;BME280;74730;43.858;18.424;2024-02-14T03:37:54;95923.28;;;4.23;74.37
84511;BME280;74730;43.858;18.424;2024-02-14T03:40:19;95925.56;;;4.26;73.36
84511;BME280;74730;43.858;18.424;2024-02-14T03:42:46;95937.16;;;4.30;72.92
84511;BME280;74730;43.858;18.424;2024-02-14T03:45:11;95937.00;;;4.32;73.11
84511;BME280;74730;43.858;18.424;2024-02-14T03:47:37;95931.66;;;4.25;72.62
84511;BME280;74730;43.858;18.424;2024-02-14T03:50:07;95938.63;;;4.23;72.34
84511;BME280;74730;43.858;18.424;2024-02-14T03:52:33;95944.81;;;4.30;72.01
84511;BME280;74730;43.858;18.424;2024-02-14T03:55:02;95934.16;;;4.35;71.32
84511;BME280;74730;43.858;18.424;2024-02-14T03:57:28;95941.25;;;4.41;69.73
84511;BME280;74730;43.858;18.424;2024-02-14T03:59:55;95937.47;;;4.45;68.87
84511;BME280;74730;43.858;18.424;2024-02-14T04:02:22;95943.78;;;4.51;71.55
84511;BME280;74730;43.858;18.424;2024-02-14T04:04:49;95939.03;;;4.56;71.74
84511;BME280;74730;43.858;18.424;2024-02-14T04:07:14;95939.03;;;4.56;73.03
84511;BME280;74730;43.858;18.424;2024-02-14T04:09:40;95947.63;;;4.64;72.15
84511;BME280;74730;43.858;18.424;2024-02-14T04:12:06;95948.97;;;4.59;72.03
84511;BME280;74730;43.858;18.424;2024-02-14T04:14:32;95955.91;;;4.49;72.20
84511;BME280;74730;43.858;18.424;2024-02-14T04:17:00;95951.22;;;4.44;71.27
84511;BME280;74730;43.858;18.424;2024-02-14T04:19:26;95960.09;;;4.40;71.95
84511;BME280;74730;43.858;18.424;2024-02-14T04:21:52;95964.00;;;4.44;73.01
84511;BME280;74730;43.858;18.424;2024-02-14T04:24:17;95961.03;;;4.49;73.43
84511;BME280;74730;43.858;18.424;2024-02-14T04:26:43;95963.22;;;4.43;73.34
84511;BME280;74730;43.858;18.424;2024-02-14T04:29:08;95960.66;;;4.43;72.97
84511;BME280;74730;43.858;18.424;2024-02-14T04:31:34;95965.59;;;4.45;72.47
84511;BME280;74730;43.858;18.424;2024-02-14T04:34:00;95967.09;;;4.47;72.85
84511;BME280;74730;43.858;18.424;2024-02-14T04:36:26;95967.75;;;4.50;72.06
84511;BME280;74730;43.858;18.424;2024-02-14T04:38:52;95968.72;;;4.49;69.85
84511;BME280;74730;43.858;18.424;2024-02-14T04:41:18;95977.59;;;4.44;68.78
84511;BME280;74730;43.858;18.424;2024-02-14T04:43:44;95977.88;;;4.41;68.12
84511;BME280;74730;43.858;18.424;2024-02-14T04:46:10;95981.66;;;4.37;67.92
84511;BME280;74730;43.858;18.424;2024-02-14T04:48:36;95983.53;;;4.35;68.15
84511;BME280;74730;43.858;18.424;2024-02-14T04:51:05;95971.72;;;4.34;68.63
84511;BME280;74730;43.858;18.424;2024-02-14T04:53:31;95978.06;;;4.30;68.26
84511;BME280;74730;43.858;18.424;2024-02-14T04:55:56;95984.38;;;4.26;67.64
84511;BME280;74730;43.858;18.424;2024-02-14T04:58:22;95986.41;;;4.23;67.85
84511;BME280;74730;43.858;18.424;2024-02-14T05:00:48;95990.06;;;4.20;68.13
84511;BME280;74730;43.858;18.424;2024-02-14T05:03:14;95991.69;;;4.21;68.11
84511;BME280;74730;43.858;18.424;2024-02-14T05:05:41;95987.22;;;4.23;68.28
84511;BME280;74730;43.858;18.424;2024-02-14T05:08:06;95989.66;;;4.25;68.08
84511;BME280;74730;43.858;18.424;2024-02-14T05:10:32;95991.91;;;4.28;68.05
84511;BME280;74730;43.858;18.424;2024-02-14T05:12:58;95992.34;;;4.23;69.86
84511;BME280;74730;43.858;18.424;2024-02-14T05:15:23;95994.25;;;4.21;69.76
84511;BME280;74730;43.858;18.424;2024-02-14T05:17:49;96006.47;;;4.18;70.92
84511;BME280;74730;43.858;18.424;2024-02-14T05:20:16;96002.97;;;4.19;71.18
84511;BME280;74730;43.858;18.424;2024-02-14T05:22:41;95997.44;;;4.23;70.07
84511;BME280;74730;43.858;18.424;2024-02-14T05:25:07;95988.84;;;4.24;69.47
84511;BME280;74730;43.858;18.424;2024-02-14T05:27:37;95994.06;;;4.23;69.29
84511;BME280;74730;43.858;18.424;2024-02-14T05:30:04;95989.38;;;4.18;70.17
84511;BME280;74730;43.858;18.424;2024-02-14T05:32:33;95996.53;;;4.15;69.42
84511;BME280;74730;43.858;18.424;2024-02-14T05:34:59;96008.63;;;4.13;69.71
84511;BME280;74730;43.858;18.424;2024-02-14T05:37:25;96004.22;;;4.05;69.24
84511;BME280;74730;43.858;18.424;2024-02-14T05:39:53;96008.13;;;3.99;70.20
84511;BME280;74730;43.858;18.424;2024-02-14T05:42:19;96011.34;;;4.01;70.75
84511;BME280;74730;43.858;18.424;2024-02-14T05:44:44;96013.91;;;4.01;72.08
84511;BME280;74730;43.858;18.424;2024-02-14T05:47:10;96013.22;;;3.99;72.77
84511;BME280;74730;43.858;18.424;2024-02-14T05:49:40;96016.19;;;3.95;73.13
84511;BME280;74730;43.858;18.424;2024-02-14T05:52:07;96020.78;;;3.91;72.36
84511;BME280;74730;43.858;18.424;2024-02-14T05:54:33;96029.13;;;3.93;70.37
84511;BME280;74730;43.858;18.424;2024-02-14T05:57:00;96026.41;;;3.95;69.38
84511;BME280;74730;43.858;18.424;2024-02-14T05:59:29;96030.19;;;4.00;69.06
84511;BME280;74730;43.858;18.424;2024-02-14T06:01:56;96035.69;;;4.06;68.41
84511;BME280;74730;43.858;18.424;2024-02-14T06:04:21;96043.50;;;4.04;68.07
84511;BME280;74730;43.858;18.424;2024-02-14T06:06:48;96040.00;;;4.05;68.05
84511;BME280;74730;43.858;18.424;2024-02-14T06:09:13;96044.81;;;4.08;69.35
84511;BME280;74730;43.858;18.424;2024-02-14T06:11:39;96052.09;;;4.13;68.61
84511;BME280;74730;43.858;18.424;2024-02-14T06:14:06;96058.69;;;4.25;68.98
84511;BME280;74730;43.858;18.424;2024-02-14T06:16:32;96060.72;;;4.21;67.33
84511;BME280;74730;43.858;18.424;2024-02-14T06:18:58;96063.50;;;4.28;67.54
84511;BME280;74730;43.858;18.424;2024-02-14T06:21:23;96064.03;;;4.31;68.24
84511;BME280;74730;43.858;18.424;2024-02-14T06:23:50;96068.91;;;4.34;67.07
84511;BME280;74730;43.858;18.424;2024-02-14T06:26:16;96070.47;;;4.45;67.03
84511;BME280;74730;43.858;18.424;2024-02-14T06:28:43;96074.00;;;4.44;66.94
84511;BME280;74730;43.858;18.424;2024-02-14T06:31:09;96073.16;;;4.53;67.18
84511;BME280;74730;43.858;18.424;2024-02-14T06:33:35;96070.09;;;4.77;65.70
84511;BME280;74730;43.858;18.424;2024-02-14T06:36:01;96077.34;;;4.91;65.70
84511;BME280;74730;43.858;18.424;2024-02-14T06:38:26;96069.53;;;4.93;66.30
84511;BME280;74730;43.858;18.424;2024-02-14T06:40:52;96075.44;;;4.93;64.35
84511;BME280;74730;43.858;18.424;2024-02-14T06:43:17;96079.75;;;4.93;63.93
84511;BME280;74730;43.858;18.424;2024-02-14T06:45:43;96084.41;;;5.07;64.18
84511;BME280;74730;43.858;18.424;2024-02-14T06:48:09;96083.97;;;5.21;63.47
84511;BME280;74730;43.858;18.424;2024-02-14T06:50:34;96086.81;;;5.45;63.23
84511;BME280;74730;43.858;18.424;2024-02-14T06:53:00;96082.84;;;5.68;62.91
84511;BME280;74730;43.858;18.424;2024-02-14T06:55:26;96087.06;;;5.87;64.05
84511;BME280;74730;43.858;18.424;2024-02-14T06:57:52;96086.94;;;6.06;62.47
84511;BME280;74730;43.858;18.424;2024-02-14T07:00:18;96081.84;;;6.14;61.54
84511;BME280;74730;43.858;18.424;2024-02-14T07:02:44;96089.78;;;6.21;60.76
84511;BME280;74730;43.858;18.424;2024-02-14T07:05:12;96095.50;;;6.15;61.03
84511;BME280;74730;43.858;18.424;2024-02-14T07:07:40;96099.31;;;5.93;61.79
84511;BME280;74730;43.858;18.424;2024-02-14T07:10:06;96103.28;;;5.78;61.45
84511;BME280;74730;43.858;18.424;2024-02-14T07:12:32;96100.22;;;5.74;61.43
84511;BME280;74730;43.858;18.424;2024-02-14T07:14:58;96107.69;;;5.68;62.86
84511;BME280;74730;43.858;18.424;2024-02-14T07:17:23;96107.56;;;5.42;63.99
84511;BME280;74730;43.858;18.424;2024-02-14T07:19:49;96108.38;;;5.43;63.65
84511;BME280;74730;43.858;18.424;2024-02-14T07:22:15;96107.22;;;5.55;64.91
84511;BME280;74730;43.858;18.424;2024-02-14T07:24:41;96105.81;;;5.88;63.25
84511;BME280;74730;43.858;18.424;2024-02-14T07:27:12;96110.94;;;6.05;61.92
84511;BME280;74730;43.858;18.424;2024-02-14T07:29:38;96113.22;;;6.26;61.25
84511;BME280;74730;43.858;18.424;2024-02-14T07:32:03;96113.00;;;6.19;59.99
84511;BME280;74730;43.858;18.424;2024-02-14T07:34:29;96109.78;;;6.17;61.30
84511;BME280;74730;43.858;18.424;2024-02-14T07:36:55;96110.94;;;6.41;60.48
84511;BME280;74730;43.858;18.424;2024-02-14T07:39:20;96111.06;;;6.57;60.94
84511;BME280;74730;43.858;18.424;2024-02-14T07:41:45;96117.06;;;6.48;59.43
84511;BME280;74730;43.858;18.424;2024-02-14T07:44:11;96115.59;;;6.63;59.06
84511;BME280;74730;43.858;18.424;2024-02-14T07:46:37;96115.84;;;6.78;58.71
84511;BME280;74730;43.858;18.424;2024-02-14T07:49:03;96116.19;;;7.08;58.35
84511;BME280;74730;43.858;18.424;2024-02-14T07:51:30;96114.38;;;7.35;57.62
84511;BME280;74730;43.858;18.424;2024-02-14T07:54:05;96123.09;;;7.50;56.94
84511;BME280;74730;43.858;18.424;2024-02-14T07:56:30;96112.13;;;7.82;55.79
84511;BME280;74730;43.858;18.424;2024-02-14T07:58:56;96119.03;;;7.97;54.90
84511;BME280;74730;43.858;18.424;2024-02-14T08:01:22;96119.88;;;8.06;55.06
84511;BME280;74730;43.858;18.424;2024-02-14T08:03:48;96119.06;;;8.14;55.53
84511;BME280;74730;43.858;18.424;2024-02-14T08:06:14;96117.81;;;8.58;54.22
84511;BME280;74730;43.858;18.424;2024-02-14T08:08:39;96117.16;;;9.44;51.81
84511;BME280;74730;43.858;18.424;2024-02-14T08:11:05;96117.78;;;10.07;49.84
84511;BME280;74730;43.858;18.424;2024-02-14T08:13:31;96117.28;;;10.95;48.07
84511;BME280;74730;43.858;18.424;2024-02-14T08:15:57;96113.31;;;11.57;46.02
84511;BME280;74730;43.858;18.424;2024-02-14T08:18:24;96110.78;;;12.15;44.22
84511;BME280;74730;43.858;18.424;2024-02-14T08:20:50;96113.59;;;13.11;41.94
84511;BME280;74730;43.858;18.424;2024-02-14T08:23:15;96103.84;;;13.13;41.44
84511;BME280;74730;43.858;18.424;2024-02-14T08:25:42;96097.75;;;13.34;40.85
84511;BME280;74730;43.858;18.424;2024-02-14T08:28:07;96097.63;;;13.96;41.17
84511;BME280;74730;43.858;18.424;2024-02-14T08:30:34;96108.81;;;14.03;39.51
84511;BME280;74730;43.858;18.424;2024-02-14T08:33:00;96106.03;;;13.51;42.13
84511;BME280;74730;43.858;18.424;2024-02-14T08:35:25;96103.28;;;13.24;42.66
84511;BME280;74730;43.858;18.424;2024-02-14T08:37:51;96100.22;;;13.42;40.46
84511;BME280;74730;43.858;18.424;2024-02-14T08:40:17;96101.84;;;13.15;41.37
84511;BME280;74730;43.858;18.424;2024-02-14T08:42:43;96093.28;;;12.87;41.52
84511;BME280;74730;43.858;18.424;2024-02-14T08:45:09;96096.31;;;12.97;41.78
84511;BME280;74730;43.858;18.424;2024-02-14T08:47:35;96092.56;;;13.27;41.17
84511;BME280;74730;43.858;18.424;2024-02-14T08:50:03;96087.66;;;13.46;39.63
84511;BME280;74730;43.858;18.424;2024-02-14T08:52:29;96084.03;;;13.34;39.29
84511;BME280;74730;43.858;18.424;2024-02-14T08:54:55;96086.97;;;13.30;37.97
84511;BME280;74730;43.858;18.424;2024-02-14T08:57:22;96095.47;;;12.62;39.84
84511;BME280;74730;43.858;18.424;2024-02-14T08:59:49;96095.06;;;12.16;41.14
84511;BME280;74730;43.858;18.424;2024-02-14T09:02:16;96082.00;;;11.67;40.56
84511;BME280;74730;43.858;18.424;2024-02-14T09:04:42;96091.94;;;11.49;41.96
84511;BME280;74730;43.858;18.424;2024-02-14T09:07:10;96085.22;;;12.05;41.47
84511;BME280;74730;43.858;18.424;2024-02-14T09:09:36;96091.19;;;12.76;40.37
84511;BME280;74730;43.858;18.424;2024-02-14T09:12:04;96094.41;;;13.40;39.56
84511;BME280;74730;43.858;18.424;2024-02-14T09:14:33;96088.19;;;13.82;37.87
84511;BME280;74730;43.858;18.424;2024-02-14T09:16:59;96085.50;;;14.30;38.25
84511;BME280;74730;43.858;18.424;2024-02-14T09:19:25;96101.34;;;14.54;37.21
84511;BME280;74730;43.858;18.424;2024-02-14T09:21:53;96094.00;;;13.91;37.61
84511;BME280;74730;43.858;18.424;2024-02-14T09:24:18;96094.88;;;13.57;36.80
84511;BME280;74730;43.858;18.424;2024-02-14T09:26:44;96096.66;;;12.60;37.06
84511;BME280;74730;43.858;18.424;2024-02-14T09:29:11;96090.56;;;12.04;38.80
84511;BME280;74730;43.858;18.424;2024-02-14T09:31:37;96092.94;;;11.04;39.71
84511;BME280;74730;43.858;18.424;2024-02-14T09:34:03;96098.91;;;10.90;40.42
84511;BME280;74730;43.858;18.424;2024-02-14T09:36:28;96103.31;;;10.66;41.29
84511;BME280;74730;43.858;18.424;2024-02-14T09:38:55;96091.66;;;10.71;43.54
84511;BME280;74730;43.858;18.424;2024-02-14T09:41:31;96092.22;;;11.25;42.81
84511;BME280;74730;43.858;18.424;2024-02-14T09:43:59;96095.19;;;11.87;41.92
84511;BME280;74730;43.858;18.424;2024-02-14T09:46:25;96092.34;;;12.24;40.45
84511;BME280;74730;43.858;18.424;2024-02-14T09:48:53;96091.19;;;12.76;39.63
84511;BME280;74730;43.858;18.424;2024-02-14T09:51:20;96092.78;;;13.05;37.94
84511;BME280;74730;43.858;18.424;2024-02-14T09:53:46;96087.59;;;13.32;37.88
84511;BME280;74730;43.858;18.424;2024-02-14T09:56:12;96089.91;;;13.55;35.39
84511;BME280;74730;43.858;18.424;2024-02-14T09:58:43;96079.31;;;13.16;35.55
84511;BME280;74730;43.858;18.424;2024-02-14T10:01:09;96082.38;;;12.70;35.87
84511;BME280;74730;43.858;18.424;2024-02-14T10:03:35;96083.81;;;12.52;37.67
84511;BME280;74730;43.858;18.424;2024-02-14T10:06:02;96082.19;;;12.44;38.36
84511;BME280;74730;43.858;18.424;2024-02-14T10:08:28;96073.66;;;12.29;37.90
84511;BME280;74730;43.858;18.424;2024-02-14T10:10:56;96073.19;;;12.40;38.82
84511;BME280;74730;43.858;18.424;2024-02-14T10:13:26;96072.31;;;12.54;38.93
84511;BME280;74730;43.858;18.424;2024-02-14T10:15:52;96067.13;;;12.33;38.05
84511;BME280;74730;43.858;18.424;2024-02-14T10:18:17;96065.13;;;12.07;39.08
84511;BME280;74730;43.858;18.424;2024-02-14T10:20:55;96070.13;;;12.09;38.94
84511;BME280;74730;43.858;18.424;2024-02-14T10:23:21;96064.72;;;11.89;38.91
84511;BME280;74730;43.858;18.424;2024-02-14T10:25:52;96056.56;;;11.71;39.27
84511;BME280;74730;43.858;18.424;2024-02-14T10:28:20;96048.09;;;11.62;40.16
84511;BME280;74730;43.858;18.424;2024-02-14T10:30:47;96058.47;;;11.47;39.86
84511;BME280;74730;43.858;18.424;2024-02-14T10:33:18;96049.31;;;11.30;39.59
84511;BME280;74730;43.858;18.424;2024-02-14T10:35:48;96052.81;;;10.93;40.12
84511;BME280;74730;43.858;18.424;2024-02-14T10:38:15;96052.09;;;10.85;40.59
84511;BME280;74730;43.858;18.424;2024-02-14T10:40:47;96055.84;;;10.82;41.33
84511;BME280;74730;43.858;18.424;2024-02-14T10:43:12;96051.66;;;10.66;40.86
84511;BME280;74730;43.858;18.424;2024-02-14T10:45:39;96045.31;;;10.17;41.58
84511;BME280;74730;43.858;18.424;2024-02-14T10:48:05;96043.47;;;9.80;42.66
84511;BME280;74730;43.858;18.424;2024-02-14T10:50:33;96047.81;;;9.79;42.82
84511;BME280;74730;43.858;18.424;2024-02-14T10:53:05;96048.72;;;9.87;42.86
84511;BME280;74730;43.858;18.424;2024-02-14T10:55:33;96045.22;;;10.02;42.52
84511;BME280;74730;43.858;18.424;2024-02-14T10:58:01;96032.78;;;10.06;43.27
84511;BME280;74730;43.858;18.424;2024-02-14T11:00:27;96039.72;;;10.05;42.82
84511;BME280;74730;43.858;18.424;2024-02-14T11:02:53;96040.16;;;10.09;42.87
84511;BME280;74730;43.858;18.424;2024-02-14T11:05:20;96046.50;;;10.06;43.25
84511;BME280;74730;43.858;18.424;2024-02-14T11:07:49;96034.84;;;10.10;42.60
84511;BME280;74730;43.858;18.424;2024-02-14T11:10:19;96028.88;;;10.10;43.05
84511;BME280;74730;43.858;18.424;2024-02-14T11:12:47;96029.09;;;10.00;42.64
84511;BME280;74730;43.858;18.424;2024-02-14T11:15:22;96029.34;;;9.91;43.01
84511;BME280;74730;43.858;18.424;2024-02-14T11:17:50;96028.44;;;9.84;43.70
84511;BME280;74730;43.858;18.424;2024-02-14T11:20:21;96030.84;;;9.85;43.85
84511;BME280;74730;43.858;18.424;2024-02-14T11:25:29;96027.16;;;9.79;44.18
84511;BME280;74730;43.858;18.424;2024-02-14T11:28:00;96029.03;;;9.63;44.39
84511;BME280;74730;43.858;18.424;2024-02-14T11:30:33;96028.41;;;9.61;44.89
84511;BME280;74730;43.858;18.424;2024-02-14T11:33:26;96022.63;;;9.59;45.14
84511;BME280;74730;43.858;18.424;2024-02-14T11:35:52;96032.09;;;9.66;44.77
84511;BME280;74730;43.858;18.424;2024-02-14T11:38:24;96028.25;;;9.62;43.97
84511;BME280;74730;43.858;18.424;2024-02-14T11:40:55;96034.38;;;9.61;44.33
84511;BME280;74730;43.858;18.424;2024-02-14T11:43:24;96024.69;;;9.63;44.00
84511;BME280;74730;43.858;18.424;2024-02-14T11:45:50;96021.28;;;9.71;43.83
84511;BME280;74730;43.858;18.424;2024-02-14T11:48:18;96014.88;;;9.82;43.01
84511;BME280;74730;43.858;18.424;2024-02-14T11:50:46;96019.00;;;9.68;43.43
84511;BME280;74730;43.858;18.424;2024-02-14T11:53:12;96017.53;;;9.73;44.74
84511;BME280;74730;43.858;18.424;2024-02-14T11:55:39;96018.16;;;9.75;45.12
84511;BME280;74730;43.858;18.424;2024-02-14T11:58:10;96018.16;;;9.75;44.88
84511;BME280;74730;43.858;18.424;2024-02-14T12:00:46;96019.81;;;9.68;44.51
84511;BME280;74730;43.858;18.424;2024-02-14T12:03:20;96012.72;;;9.70;44.27
84511;BME280;74730;43.858;18.424;2024-02-14T12:05:47;96015.25;;;9.78;45.23
84511;BME280;74730;43.858;18.424;2024-02-14T12:08:16;96011.63;;;9.88;45.13
84511;BME280;74730;43.858;18.424;2024-02-14T12:10:46;96010.13;;;9.93;47.37
84511;BME280;74730;43.858;18.424;2024-02-14T12:13:17;96004.56;;;10.04;45.90
84511;BME280;74730;43.858;18.424;2024-02-14T12:15:48;95997.28;;;10.08;44.61
84511;BME280;74730;43.858;18.424;2024-02-14T12:18:16;95995.59;;;10.15;44.62
84511;BME280;74730;43.858;18.424;2024-02-14T12:20:43;95995.28;;;10.18;44.30
84511;BME280;74730;43.858;18.424;2024-02-14T12:23:14;95994.59;;;10.24;44.49
84511;BME280;74730;43.858;18.424;2024-02-14T12:25:43;95997.88;;;10.33;43.40
84511;BME280;74730;43.858;18.424;2024-02-14T12:28:16;95999.50;;;10.34;43.41
84511;BME280;74730;43.858;18.424;2024-02-14T12:30:46;95985.25;;;10.38;43.00
84511;BME280;74730;43.858;18.424;2024-02-14T12:33:14;95983.66;;;10.51;42.78
84511;BME280;74730;43.858;18.424;2024-02-14T12:35:44;95982.16;;;10.57;42.04
84511;BME280;74730;43.858;18.424;2024-02-14T12:38:10;95971.38;;;10.53;42.24
84511;BME280;74730;43.858;18.424;2024-02-14T12:40:36;95970.84;;;10.58;41.88
84511;BME280;74730;43.858;18.424;2024-02-14T12:43:02;95972.69;;;10.64;41.73
84511;BME280;74730;43.858;18.424;2024-02-14T12:45:29;95964.41;;;10.68;42.04
84511;BME280;74730;43.858;18.424;2024-02-14T12:47:55;95966.41;;;10.66;41.81
84511;BME280;74730;43.858;18.424;2024-02-14T12:50:20;95965.66;;;10.73;41.87
84511;BME280;74730;43.858;18.424;2024-02-14T12:52:46;95962.38;;;10.79;42.06
84511;BME280;74730;43.858;18.424;2024-02-14T12:55:14;95953.72;;;10.86;41.57
84511;BME280;74730;43.858;18.424;2024-02-14T12:57:40;95953.38;;;10.89;40.88